createdAt,value
2022-08-02T00:00:41.527Z,16.33
2022-08-02T00:03:10.694Z,13.63
2022-08-02T00:05:52.933Z,13.13
2022-08-02T00:08:21.106Z,11.90
2022-08-02T00:10:47.986Z,11.77
2022-08-02T00:13:14.584Z,15.30
2022-08-02T00:15:44.363Z,8.30
2022-08-02T00:18:13.537Z,11.63
2022-08-02T00:20:40.387Z,9.37
2022-08-02T00:23:14.604Z,10.33
2022-08-02T00:25:55.603Z,7.70
2022-08-02T00:28:26.964Z,11.77
2022-08-02T00:30:54.552Z,13.67
2022-08-02T00:34:26.193Z,13.30
2022-08-02T00:36:11.784Z,12.30
2022-08-02T00:38:38.620Z,11.97
2022-08-02T00:41:16.729Z,10.87
2022-08-02T00:43:44.168Z,14.60
2022-08-02T00:46:10.973Z,15.30
2022-08-02T00:48:42.972Z,9.87
2022-08-02T00:51:10.170Z,9.30
2022-08-02T00:53:36.854Z,15.40
2022-08-02T00:56:03.756Z,10.80
2022-08-02T00:58:30.479Z,11.13
2022-08-02T01:00:58.269Z,9.33
2022-08-02T01:03:28.039Z,17.70
2022-08-02T01:06:09.167Z,15.50
2022-08-02T01:08:40.609Z,16.43
2022-08-02T01:11:07.707Z,14.87
2022-08-02T01:13:34.489Z,14.50
2022-08-02T01:16:06.271Z,16.63
2022-08-02T01:18:39.173Z,12.90
2022-08-02T01:21:21.144Z,12.37
2022-08-02T01:24:08.981Z,9.70
2022-08-02T01:26:55.449Z,10.00
2022-08-02T01:29:43.829Z,9.33
2022-08-02T01:32:22.077Z,12.83
2022-08-02T01:35:09.533Z,13.90
2022-08-02T01:37:54.092Z,11.23
2022-08-02T01:40:29.567Z,7.27
2022-08-02T01:43:08.834Z,6.43
2022-08-02T01:45:41.515Z,5.27
2022-08-02T01:48:12.177Z,10.33
2022-08-02T01:50:41.959Z,8.60
2022-08-02T01:53:12.914Z,7.93
2022-08-02T01:55:57.452Z,12.80
2022-08-02T01:58:27.835Z,11.17
2022-08-02T02:00:56.950Z,10.70
2022-08-02T02:03:25.536Z,11.27
2022-08-02T02:05:54.751Z,12.00
2022-08-02T02:08:28.424Z,13.90
2022-08-02T02:10:56.694Z,11.43
2022-08-02T02:13:33.651Z,8.70
2022-08-02T02:16:04.079Z,12.67
2022-08-02T02:18:40.174Z,13.47
2022-08-02T02:21:07.402Z,7.70
2022-08-02T02:23:35.612Z,14.33
2022-08-02T02:26:09.925Z,8.93
2022-08-02T02:28:37.805Z,6.63
2022-08-02T02:31:09.792Z,9.13
2022-08-02T02:34:06.325Z,6.77
2022-08-02T02:36:33.712Z,12.87
2022-08-02T02:39:13.704Z,8.83
2022-08-02T02:41:41.427Z,10.70
2022-08-02T02:44:11.376Z,7.50
2022-08-02T02:46:41.125Z,9.43
2022-08-02T02:49:10.512Z,12.33
2022-08-02T02:51:39.967Z,10.50
2022-08-02T02:54:30.385Z,10.53
2022-08-02T02:56:58.608Z,6.87
2022-08-02T02:59:25.473Z,14.30
2022-08-02T03:01:55.992Z,17.50
2022-08-02T03:04:25.419Z,11.23
2022-08-02T03:06:52.141Z,12.93
2022-08-02T03:09:18.976Z,11.50
2022-08-02T03:11:46.271Z,14.70
2022-08-02T03:14:13.471Z,15.07
2022-08-02T03:16:48.927Z,13.60
2022-08-02T03:19:16.856Z,12.67
2022-08-02T03:21:44.869Z,11.43
2022-08-02T03:24:14.587Z,8.33
2022-08-02T03:26:41.430Z,9.70
2022-08-02T03:29:10.115Z,10.43
2022-08-02T03:31:41.120Z,8.13
2022-08-02T03:34:08.219Z,8.47
2022-08-02T03:36:35.400Z,14.67
2022-08-02T03:39:02.665Z,9.90
2022-08-02T03:41:33.147Z,20.43
2022-08-02T03:44:03.093Z,12.37
2022-08-02T03:46:30.520Z,10.60
2022-08-02T03:48:59.947Z,10.67
2022-08-02T03:51:29.221Z,15.67
2022-08-02T03:54:00.671Z,11.10
2022-08-02T03:56:30.731Z,9.07
2022-08-02T03:59:08.234Z,9.73
2022-08-02T04:01:34.946Z,12.73
2022-08-02T04:04:01.606Z,9.63
2022-08-02T04:06:46.010Z,16.57
2022-08-02T04:09:20.196Z,9.33
2022-08-02T04:11:46.914Z,11.97
2022-08-02T04:14:13.646Z,8.83
2022-08-02T04:16:54.856Z,15.60
2022-08-02T04:19:25.710Z,9.23
2022-08-02T04:21:53.484Z,11.97
2022-08-02T04:24:27.429Z,8.60
2022-08-02T04:26:58.048Z,18.23
2022-08-02T04:29:33.168Z,16.53
2022-08-02T04:32:00.594Z,18.43
2022-08-02T04:34:27.330Z,17.23
2022-08-02T04:36:54.638Z,9.90
2022-08-02T04:39:23.799Z,12.43
2022-08-02T04:41:53.396Z,15.50
2022-08-02T04:44:24.155Z,14.30
2022-08-02T04:46:54.602Z,15.30
2022-08-02T04:49:21.712Z,11.63
2022-08-02T04:51:48.708Z,10.30
2022-08-02T04:54:15.447Z,10.57
2022-08-02T04:56:42.347Z,12.33
2022-08-02T04:59:12.451Z,16.83
2022-08-02T05:01:39.442Z,10.80
2022-08-02T05:04:06.412Z,7.03
2022-08-02T05:06:33.169Z,11.13
2022-08-02T05:09:02.370Z,7.73
2022-08-02T05:11:38.151Z,14.27
2022-08-02T05:14:05.816Z,8.00
2022-08-02T05:16:32.774Z,10.83
2022-08-02T05:19:03.130Z,7.27
2022-08-02T05:21:31.876Z,12.27
2022-08-02T05:24:01.105Z,6.27
2022-08-02T05:26:36.869Z,7.27
2022-08-02T05:29:05.017Z,7.23
2022-08-02T05:31:32.076Z,5.13
2022-08-02T05:34:08.617Z,7.90
2022-08-02T05:36:38.290Z,7.10
2022-08-02T05:39:15.051Z,3.93
2022-08-02T05:41:45.903Z,9.17
2022-08-02T05:44:21.635Z,5.53
2022-08-02T05:46:48.456Z,4.73
2022-08-02T05:49:15.390Z,7.83
2022-08-02T05:52:04.465Z,5.90
2022-08-02T05:54:49.653Z,9.17
2022-08-02T05:57:21.235Z,7.10
2022-08-02T06:00:02.940Z,5.57
2022-08-02T06:03:17.158Z,6.30
2022-08-02T06:06:09.322Z,7.23
2022-08-02T06:08:47.375Z,5.63
2022-08-02T06:11:17.196Z,6.87
2022-08-02T06:13:44.343Z,4.70
2022-08-02T06:16:14.216Z,7.83
2022-08-02T06:18:43.108Z,6.80
2022-08-02T06:22:35.614Z,9.70
2022-08-02T06:24:01.064Z,3.70
2022-08-02T06:26:46.073Z,5.70
2022-08-02T06:29:13.503Z,5.13
2022-08-02T06:31:42.086Z,5.10
2022-08-02T06:34:11.924Z,6.87
2022-08-02T06:36:45.694Z,7.20
2022-08-02T06:39:30.452Z,5.53
2022-08-02T06:41:59.144Z,4.30
2022-08-02T06:44:47.673Z,9.00
2022-08-02T06:47:16.559Z,4.60
2022-08-02T06:49:53.009Z,7.67
2022-08-02T06:52:28.920Z,7.73
2022-08-02T06:54:58.273Z,7.17
2022-08-02T06:57:28.301Z,7.77
2022-08-02T06:59:55.249Z,8.37
2022-08-02T07:02:22.264Z,7.47
2022-08-02T07:05:07.364Z,6.57
2022-08-02T07:07:43.117Z,8.33
2022-08-02T07:10:10.018Z,8.17
2022-08-02T07:12:36.799Z,8.40
2022-08-02T07:15:13.807Z,6.33
2022-08-02T07:17:40.533Z,12.73
2022-08-02T07:20:08.007Z,11.10
2022-08-02T07:22:34.617Z,17.33
2022-08-02T07:25:01.515Z,12.77
2022-08-02T07:27:28.786Z,12.13
2022-08-02T07:29:55.841Z,9.60
2022-08-02T07:32:24.467Z,11.13
2022-08-02T07:35:06.562Z,9.40
2022-08-02T07:37:55.002Z,6.80
2022-08-02T07:40:22.471Z,14.03
2022-08-02T07:42:57.952Z,9.07
2022-08-02T07:45:25.661Z,8.90
2022-08-02T07:47:56.900Z,8.23
2022-08-02T07:50:23.701Z,9.20
2022-08-02T07:52:57.541Z,7.50
2022-08-02T07:55:25.470Z,9.27
2022-08-02T07:58:12.950Z,10.33
2022-08-02T08:00:45.061Z,7.77
2022-08-02T08:03:11.886Z,6.87
2022-08-02T08:05:40.837Z,7.53
2022-08-02T08:08:07.508Z,11.23
2022-08-02T08:10:34.320Z,10.33
2022-08-02T08:13:00.971Z,8.37
2022-08-02T08:15:27.695Z,9.57
2022-08-02T08:17:54.308Z,11.60
2022-08-02T08:20:20.977Z,12.07
2022-08-02T08:22:47.895Z,9.13
2022-08-02T08:25:14.560Z,13.47
2022-08-02T08:27:52.258Z,9.70
2022-08-02T08:30:20.571Z,13.17
2022-08-02T08:32:47.516Z,8.07
2022-08-02T08:35:14.719Z,9.33
2022-08-02T08:37:41.829Z,8.30
2022-08-02T08:40:10.226Z,13.17
2022-08-02T08:42:39.199Z,8.30
2022-08-02T08:45:07.228Z,7.53
2022-08-02T08:47:38.766Z,8.10
2022-08-02T08:50:17.116Z,4.90
2022-08-02T08:53:03.910Z,6.03
2022-08-02T08:55:31.641Z,6.50
2022-08-02T08:58:00.279Z,6.03
2022-08-02T09:00:27.655Z,6.70
2022-08-02T09:02:54.391Z,8.20
2022-08-02T09:05:21.103Z,5.73
2022-08-02T09:07:50.697Z,7.93
2022-08-02T09:10:39.963Z,8.40
2022-08-02T09:13:37.795Z,8.10
2022-08-02T09:15:56.391Z,8.73
2022-08-02T09:18:39.848Z,6.20
2022-08-02T09:21:10.857Z,9.87
2022-08-02T09:23:57.350Z,7.07
2022-08-02T09:26:24.288Z,9.70
2022-08-02T09:28:53.068Z,13.13
2022-08-02T09:31:24.346Z,11.07
2022-08-02T09:33:52.526Z,7.87
2022-08-02T09:36:19.159Z,6.80
2022-08-02T09:39:04.090Z,11.53
2022-08-02T09:41:33.405Z,5.97
2022-08-02T09:44:05.412Z,7.00
2022-08-02T09:46:39.159Z,5.30
2022-08-02T09:49:14.645Z,5.47
2022-08-02T09:51:47.638Z,7.00
2022-08-02T09:54:25.242Z,3.87
2022-08-02T09:56:57.466Z,5.87
2022-08-02T09:59:25.488Z,6.17
2022-08-02T10:02:00.404Z,3.90
2022-08-02T10:04:30.511Z,7.10
2022-08-02T10:06:59.472Z,5.07
2022-08-02T10:09:28.991Z,6.13
2022-08-02T10:11:56.157Z,9.50
2022-08-02T10:14:23.665Z,2.93
2022-08-02T10:16:55.013Z,3.10
2022-08-02T10:20:02.076Z,5.40
2022-08-02T10:22:11.665Z,8.03
2022-08-02T10:24:40.170Z,5.60
2022-08-02T10:27:21.906Z,2.87
2022-08-02T10:29:55.212Z,6.37
2022-08-02T10:32:30.144Z,4.83
2022-08-02T10:35:20.044Z,6.73
2022-08-02T10:38:04.663Z,2.80
2022-08-02T10:40:54.547Z,6.00
2022-08-02T10:43:36.521Z,7.10
2022-08-02T10:46:27.785Z,4.30
2022-08-02T10:52:03.022Z,3.20
2022-08-02T10:54:38.882Z,4.00
2022-08-02T10:57:19.336Z,3.70
2022-08-02T10:59:46.606Z,6.90
2022-08-02T11:02:14.072Z,8.27
2022-08-02T11:04:43.998Z,3.67
2022-08-02T11:07:34.298Z,3.33
2022-08-02T11:10:26.546Z,5.47
2022-08-02T11:13:16.768Z,6.63
2022-08-02T11:15:49.993Z,4.90
2022-08-02T11:18:16.938Z,4.23
2022-08-02T11:20:43.740Z,4.13
2022-08-02T11:23:44.170Z,4.07
2022-08-02T11:26:30.592Z,3.70
2022-08-02T11:29:01.477Z,4.20
2022-08-02T11:31:28.917Z,7.47
2022-08-02T11:33:57.687Z,4.77
2022-08-02T11:36:24.541Z,5.17
2022-08-02T11:39:09.003Z,4.43
2022-08-02T11:41:47.325Z,4.97
2022-08-02T11:44:14.456Z,3.70
2022-08-02T11:46:41.214Z,5.17
2022-08-02T11:49:15.735Z,4.90
2022-08-02T11:51:55.937Z,5.17
2022-08-02T11:54:24.285Z,4.17
2022-08-02T11:56:50.937Z,5.20
2022-08-02T11:59:17.612Z,5.23
2022-08-02T12:01:46.289Z,3.70
2022-08-02T12:04:17.315Z,7.50
2022-08-02T12:06:44.645Z,5.10
2022-08-02T12:09:18.730Z,10.33
2022-08-02T12:11:51.604Z,4.70
2022-08-02T12:14:19.100Z,6.63
2022-08-02T12:17:04.408Z,3.73
2022-08-02T12:19:31.055Z,3.90
2022-08-02T12:22:24.384Z,5.03
2022-08-02T12:24:56.104Z,4.87
2022-08-02T12:27:37.098Z,3.93
2022-08-02T12:30:13.131Z,3.33
2022-08-02T12:32:40.667Z,4.87
2022-08-02T12:35:26.661Z,4.60
2022-08-02T12:37:54.062Z,4.10
2022-08-02T12:40:29.415Z,3.60
2022-08-02T12:43:08.942Z,6.77
2022-08-02T12:45:48.831Z,3.50
2022-08-02T12:48:17.701Z,3.83
2022-08-02T12:50:44.571Z,3.50
2022-08-02T12:53:16.568Z,3.40
2022-08-02T12:55:59.438Z,3.00
2022-08-02T12:58:26.953Z,3.47
2022-08-02T13:00:56.081Z,7.20
2022-08-02T13:04:09.059Z,3.43
2022-08-02T13:06:39.458Z,6.80
2022-08-02T13:09:00.474Z,3.20
2022-08-02T13:11:27.823Z,4.43
2022-08-02T13:13:54.743Z,5.33
2022-08-02T13:16:30.493Z,2.80
2022-08-02T13:18:59.720Z,3.33
2022-08-02T13:21:40.654Z,3.20
2022-08-02T13:24:32.779Z,3.43
2022-08-02T13:27:05.162Z,3.17
2022-08-02T13:29:37.936Z,7.03
2022-08-02T13:32:05.080Z,3.50
2022-08-02T13:34:31.680Z,3.73
2022-08-02T13:36:58.385Z,3.60
2022-08-02T13:39:25.125Z,3.37
2022-08-02T13:41:56.568Z,5.23
2022-08-02T13:44:23.290Z,4.40
2022-08-02T13:46:49.929Z,3.53
2022-08-02T13:49:19.983Z,5.80
2022-08-02T13:51:48.719Z,6.27
2022-08-02T13:54:16.343Z,3.83
2022-08-02T13:56:43.191Z,4.53
2022-08-02T13:59:54.328Z,3.47
2022-08-02T14:01:57.194Z,3.67
2022-08-02T14:04:27.292Z,3.43
2022-08-02T14:06:54.163Z,3.83
2022-08-02T14:09:21.041Z,3.70
2022-08-02T14:11:48.325Z,3.80
2022-08-02T14:14:17.204Z,4.13
2022-08-02T14:16:45.247Z,4.43
2022-08-02T14:19:16.762Z,4.43
2022-08-02T14:21:46.859Z,5.70
2022-08-02T14:24:19.688Z,3.57
2022-08-02T14:26:47.259Z,5.93
2022-08-02T14:29:15.295Z,5.60
2022-08-02T14:31:44.702Z,5.43
2022-08-02T14:34:19.087Z,4.90
2022-08-02T14:36:47.579Z,3.77
2022-08-02T14:39:19.295Z,3.70
2022-08-02T14:41:59.547Z,4.03
2022-08-02T14:44:30.403Z,5.13
2022-08-02T14:46:57.515Z,4.30
2022-08-02T14:49:25.219Z,8.33
2022-08-02T14:51:53.578Z,3.70
2022-08-02T14:54:20.671Z,4.30
2022-08-02T14:56:56.037Z,4.73
2022-08-02T14:59:22.734Z,3.30
2022-08-02T15:01:49.513Z,3.57
2022-08-02T15:04:16.318Z,3.60
2022-08-02T15:06:43.005Z,7.50
2022-08-02T15:09:09.781Z,3.57
2022-08-02T15:11:47.609Z,4.50
2022-08-02T15:14:22.359Z,3.63
2022-08-02T15:16:58.028Z,3.50
2022-08-02T15:19:41.625Z,3.77
2022-08-02T15:22:19.424Z,3.33
2022-08-02T15:24:50.255Z,3.53
2022-08-02T15:27:17.119Z,3.57
2022-08-02T15:29:45.016Z,3.87
2022-08-02T15:32:12.691Z,4.13
2022-08-02T15:34:40.028Z,4.37
2022-08-02T15:37:06.789Z,3.60
2022-08-02T15:39:33.497Z,6.57
2022-08-02T15:42:00.115Z,3.50
2022-08-02T15:44:26.793Z,4.80
2022-08-02T15:47:00.135Z,3.60
2022-08-02T15:49:26.968Z,3.77
2022-08-02T15:51:54.373Z,3.83
2022-08-02T15:54:21.034Z,3.43
2022-08-02T15:56:47.859Z,4.50
2022-08-02T15:59:16.722Z,6.00
2022-08-02T16:01:47.029Z,4.13
2022-08-02T16:04:15.385Z,3.50
2022-08-02T16:06:42.255Z,5.10
2022-08-02T16:09:09.343Z,3.97
2022-08-02T16:11:35.963Z,4.40
2022-08-02T16:14:02.651Z,4.37
2022-08-02T16:16:31.637Z,4.00
2022-08-02T16:19:47.461Z,4.30
2022-08-02T16:21:52.774Z,4.17
2022-08-02T16:24:19.509Z,5.03
2022-08-02T16:26:46.130Z,4.60
2022-08-02T16:29:12.975Z,4.90
2022-08-02T16:31:42.429Z,4.30
2022-08-02T16:34:09.932Z,4.50
2022-08-02T16:36:37.106Z,5.17
2022-08-02T16:39:04.674Z,5.00
2022-08-02T16:41:51.702Z,12.60
2022-08-02T16:44:26.874Z,7.10
2022-08-02T16:46:57.418Z,4.53
2022-08-02T16:50:07.483Z,5.57
2022-08-02T16:52:15.416Z,6.67
2022-08-02T16:54:42.214Z,5.17
2022-08-02T16:57:08.886Z,4.27
2022-08-02T16:59:42.847Z,4.77
2022-08-02T17:02:15.350Z,4.57
2022-08-02T17:04:45.637Z,4.13
2022-08-02T17:08:16.476Z,6.17
2022-08-02T17:10:06.695Z,4.70
2022-08-02T17:12:36.258Z,8.13
2022-08-02T17:15:47.032Z,4.50
2022-08-02T17:17:52.320Z,5.33
2022-08-02T17:20:19.461Z,4.43
2022-08-02T17:22:46.171Z,4.97
2022-08-02T17:25:14.710Z,5.67
2022-08-02T17:27:42.851Z,6.70
2022-08-02T17:30:11.285Z,6.97
2022-08-02T17:32:38.054Z,4.23
2022-08-02T17:35:06.859Z,4.50
2022-08-02T17:37:41.756Z,7.20
2022-08-02T17:40:09.745Z,4.23
2022-08-02T17:42:36.445Z,5.70
2022-08-02T17:45:16.795Z,5.73
2022-08-02T17:48:04.613Z,4.20
2022-08-02T17:53:14.366Z,3.90
2022-08-02T17:55:42.694Z,3.60
2022-08-02T17:58:12.761Z,3.60
2022-08-02T18:00:39.566Z,5.23
2022-08-02T18:03:09.836Z,5.40
2022-08-02T18:05:55.203Z,5.83
2022-08-02T18:08:23.659Z,4.70
2022-08-02T18:10:54.398Z,6.93
2022-08-02T18:13:21.456Z,3.30
2022-08-02T18:15:49.889Z,6.10
2022-08-02T18:18:19.274Z,4.50
2022-08-02T18:20:56.223Z,5.33
2022-08-02T18:23:23.274Z,5.10
2022-08-02T18:25:54.916Z,7.93
2022-08-02T18:28:21.962Z,7.50
2022-08-02T18:30:53.600Z,4.50
2022-08-02T18:33:57.414Z,6.93
2022-08-02T18:36:10.796Z,3.83
2022-08-02T18:38:51.241Z,4.47
2022-08-02T18:41:19.035Z,4.37
2022-08-02T18:43:48.413Z,4.83
2022-08-02T18:46:17.284Z,4.40
2022-08-02T18:48:47.957Z,4.37
2022-08-02T18:51:16.041Z,5.40
2022-08-02T18:54:04.677Z,4.53
2022-08-02T18:56:40.823Z,4.20
2022-08-02T18:59:14.355Z,4.33
2022-08-02T19:01:50.737Z,6.50
2022-08-02T19:04:27.098Z,7.60
2022-08-02T19:06:55.924Z,10.53
2022-08-02T19:09:22.675Z,5.10
2022-08-02T19:11:50.214Z,6.03
2022-08-02T19:14:24.124Z,4.40
2022-08-02T19:16:59.411Z,4.00
2022-08-02T19:19:29.078Z,6.57
2022-08-02T19:22:17.882Z,4.10
2022-08-02T19:24:44.586Z,4.30
2022-08-02T19:27:20.708Z,6.90
2022-08-02T19:29:54.241Z,4.50
2022-08-02T19:32:40.240Z,4.33
2022-08-02T19:35:19.286Z,4.50
2022-08-02T19:37:58.900Z,7.83
2022-08-02T19:40:28.823Z,4.17
2022-08-02T19:44:25.303Z,6.40
2022-08-02T19:45:50.689Z,4.97
2022-08-02T19:48:24.168Z,5.20
2022-08-02T19:50:56.790Z,4.43
2022-08-02T19:53:29.012Z,5.40
2022-08-02T19:55:58.459Z,12.13
2022-08-02T19:58:30.422Z,5.73
2022-08-02T20:00:58.210Z,4.90
2022-08-02T20:03:50.905Z,5.60
2022-08-02T20:06:13.581Z,4.20
2022-08-02T20:08:40.602Z,5.20
2022-08-02T20:11:19.922Z,4.00
2022-08-02T20:13:50.054Z,9.80
2022-08-02T20:16:27.245Z,5.57
2022-08-02T20:18:57.781Z,5.60
2022-08-02T20:21:35.433Z,3.63
2022-08-02T20:24:07.555Z,4.67
2022-08-02T20:26:35.476Z,6.60
2022-08-02T20:29:04.086Z,7.10
2022-08-02T20:31:31.103Z,9.20
2022-08-02T20:33:57.851Z,9.23
2022-08-02T20:36:28.131Z,6.13
2022-08-02T20:38:55.304Z,4.13
2022-08-02T20:41:37.135Z,4.57
2022-08-02T20:44:16.210Z,6.90
2022-08-02T20:46:59.153Z,7.87
2022-08-02T20:49:40.822Z,4.47
2022-08-02T20:52:23.650Z,4.63
2022-08-02T20:54:51.399Z,5.43
2022-08-02T20:57:18.122Z,4.67
2022-08-02T20:59:44.774Z,7.83
2022-08-02T21:02:20.125Z,5.90
2022-08-02T21:04:47.006Z,5.20
2022-08-02T21:07:13.691Z,4.33
2022-08-02T21:09:52.763Z,5.53
2022-08-02T21:15:36.594Z,4.63
2022-08-02T21:18:08.007Z,7.07
2022-08-02T21:20:44.120Z,5.60
2022-08-02T21:23:18.182Z,4.43
2022-08-02T21:25:56.929Z,4.10
2022-08-02T21:28:24.911Z,4.80
2022-08-02T21:31:10.933Z,5.60
2022-08-02T21:33:56.801Z,6.67
2022-08-02T21:36:32.664Z,4.77
2022-08-02T21:39:04.443Z,7.20
2022-08-02T21:41:38.957Z,5.90
2022-08-02T21:44:16.005Z,8.10
2022-08-02T21:46:48.865Z,4.60
2022-08-02T21:49:20.674Z,5.07
2022-08-02T21:51:49.036Z,3.97
2022-08-02T21:57:04.157Z,3.97
2022-08-02T21:59:30.843Z,9.30
2022-08-02T22:01:59.660Z,4.60
2022-08-02T22:04:26.585Z,9.13
2022-08-02T22:06:54.911Z,8.37
2022-08-02T22:09:44.422Z,6.97
2022-08-02T22:12:10.315Z,7.63
2022-08-02T22:14:39.960Z,6.27
2022-08-02T22:17:13.762Z,9.17
2022-08-02T22:19:54.144Z,5.00
2022-08-02T22:22:28.523Z,6.60
2022-08-02T22:24:56.497Z,6.07
2022-08-02T22:27:24.154Z,5.43
2022-08-02T22:30:11.241Z,9.30
2022-08-02T22:32:56.653Z,5.30
2022-08-02T22:35:23.327Z,6.37
2022-08-02T22:38:14.700Z,5.00
2022-08-02T22:40:36.596Z,5.37
2022-08-02T22:43:05.181Z,11.57
2022-08-02T22:45:31.949Z,6.00
2022-08-02T22:48:04.470Z,6.60
2022-08-02T22:50:31.286Z,6.50
2022-08-02T22:52:58.490Z,10.70
2022-08-02T22:55:25.227Z,7.10
2022-08-02T22:57:59.070Z,5.53
2022-08-02T22:59:11.208Z,10.33
2022-08-02T23:00:26.270Z,5.43
2022-08-02T23:02:52.946Z,5.30
2022-08-02T23:05:20.774Z,6.97
2022-08-02T23:07:47.429Z,5.40
2022-08-02T23:10:14.286Z,5.40
2022-08-02T23:12:41.077Z,6.90
2022-08-02T23:15:08.398Z,6.77
2022-08-02T23:17:53.439Z,8.10
2022-08-02T23:20:20.431Z,5.80
2022-08-02T23:22:47.049Z,8.17
2022-08-02T23:25:14.370Z,5.23
2022-08-02T23:27:50.854Z,5.40
2022-08-02T23:30:18.474Z,8.83
2022-08-02T23:32:46.901Z,6.00
2022-08-02T23:35:16.625Z,6.03
2022-08-02T23:38:00.351Z,7.33
2022-08-02T23:40:39.572Z,11.87
2022-08-02T23:43:13.610Z,8.50
2022-08-02T23:45:41.464Z,6.97
2022-08-02T23:48:08.044Z,9.30
2022-08-02T23:50:34.690Z,6.77
2022-08-02T23:53:01.293Z,8.17
2022-08-02T23:55:27.925Z,6.87
2022-08-02T23:57:54.781Z,5.33
